Iona Mcallister — WDD4840 — position and weather

sailwx.info

Track history (hours):
 
Tides and Currents Weather Stations Pressure Air Temp Water Temp Dewpoint Dewpoint Depression Visibility Wind Speed Wind Dir Waves Ship Positions

Iona Mcallister

Owner: McAllister Towing & Transportation Co. Inc., Staten Island, NY. More information available from US FCC via Universal Licensing System and Coast Guard Vessel Documentation Center.

Last reported at 2017-Apr-30 16:24 UTC. Time now 2017-Apr-30 16:55 UTC.
Position N 41°36' W 071°24'.

Length 36 m; draft 3 m.

Type: Towing. MMSI: 367149890.

Date/timePositionNaut miles runAvg speedWind from/ knotsBaromVisibWave heightAir tempDewpointWater temp
2017-Apr-30 16:24N 41°36' W 071°24'1 0.1
2017-Apr-30 10:01N 41°37' W 071°24'0 1.2
2017-Apr-30 10:00N 41°37' W 071°24'2 3.0
2017-Apr-30 09:29N 41°35' W 071°24'1 0.2
2017-Apr-30 02:44N 41°36' W 071°24'2 8.5
2017-Apr-30 02:30N 41°38' W 071°22'4 7.5
2017-Apr-30 01:58N 41°42' W 071°20'4 7.5
2017-Apr-30 01:30N 41°45' W 071°22'4 2.3
2017-Apr-29 23:40N 41°49' W 071°24'0 0.0
2017-Apr-29 23:17N 41°49' W 071°24'0 0.0
2017-Apr-29 21:57N 41°49' W 071°24'2 0.4
2017-Apr-29 17:28N 41°47' W 071°23'4 8.2
2017-Apr-29 16:59N 41°43' W 071°21'7 1.9
2017-Apr-29 13:21N 41°37' W 071°18'4 9.8
2017-Apr-29 12:55N 41°41' W 071°19'3 7.8
2017-Apr-29 12:30N 41°44' W 071°22'5 8.7
2017-Apr-29 11:56N 41°48' W 071°24'1 1.3
2017-Apr-29 11:29N 41°49' W 071°24'0 0.0
2017-Apr-29 10:42N 41°49' W 071°24'0 0.0
2017-Apr-29 04:52N 41°49' W 071°24'0 0.0
2017-Apr-29 03:35N 41°49' W 071°24'0 0.0
2017-Apr-29 03:01N 41°49' W 071°24'0 0.0
2017-Apr-29 02:47N 41°49' W 071°24'0 0.0
2017-Apr-29 02:28N 41°49' W 071°24'0 0.0
2017-Apr-28 19:54N 41°49' W 071°24'0 0.0
2017-Apr-28 19:13N 41°49' W 071°24'0 0.0
2017-Apr-28 16:48N 41°49' W 071°24'0 0.0
2017-Apr-28 16:13N 41°49' W 071°24'0 0.0
2017-Apr-28 15:53N 41°49' W 071°24'0 0.0
2017-Apr-28 15:30N 41°49' W 071°24'0 0.0
2017-Apr-28 13:46N 41°49' W 071°24'0 0.0
2017-Apr-28 13:30N 41°49' W 071°24'0 0.0
2017-Apr-28 10:48N 41°49' W 071°24'0 0.0
2017-Apr-28 10:30N 41°49' W 071°24'0 0.0
2017-Apr-28 09:58N 41°49' W 071°24'2 2.6
2017-Apr-28 09:17N 41°47' W 071°23'2 8.7
2017-Apr-28 09:00N 41°45' W 071°22'6 9.2
2017-Apr-28 08:23N 41°40' W 071°19'2 0.2
2017-Apr-27 17:39N 41°38' W 071°18'1 9.0
2017-Apr-27 17:30N 41°39' W 071°18'4 8.6
2017-Apr-27 17:00N 41°43' W 071°20'7 2.7
2017-Apr-27 14:31N 41°49' W 071°24'0 0.0
2017-Apr-27 13:57N 41°49' W 071°24'0 0.0
2017-Apr-27 13:28N 41°49' W 071°24'0 0.0
2017-Apr-27 13:00N 41°49' W 071°24'0 0.0
2017-Apr-27 12:23N 41°49' W 071°24'0 0.0
2017-Apr-27 11:46N 41°49' W 071°24'0 0.0
2017-Apr-27 02:35N 41°49' W 071°24'0 0.0
2017-Apr-27 02:29N 41°49' W 071°24'0 0.0
2017-Apr-27 01:57N 41°49' W 071°24'0 0.0
2017-Apr-27 00:47N 41°49' W 071°24'0 0.0
2017-Apr-27 00:25N 41°49' W 071°24'0 0.0
2017-Apr-26 23:14N 41°49' W 071°24'0 0.0
2017-Apr-26 14:57N 41°49' W 071°24'0 0.0
2017-Apr-26 14:24N 41°49' W 071°24'2 1.3
2017-Apr-26 13:13N 41°48' W 071°23'1 4.5
2017-Apr-26 13:00N 41°47' W 071°22'0 0.1
2017-Apr-26 11:56N 41°47' W 071°22'2 3.5
2017-Apr-26 11:16N 41°49' W 071°24'0 0.0
2017-Apr-26 11:00N 41°49' W 071°24'0 0.0
2017-Apr-26 10:30N 41°49' W 071°24'0 0.0
2017-Apr-26 10:00N 41°49' W 071°24'0 0.0
2017-Apr-26 08:54N 41°49' W 071°24'0 0.0
2017-Apr-26 06:05N 41°49' W 071°24'0 0.0
2017-Apr-26 05:56N 41°49' W 071°24'0 0.0
2017-Apr-26 04:55N 41°49' W 071°24'1 1.0
2017-Apr-26 03:38N 41°48' W 071°23'1 6.3
2017-Apr-26 03:26N 41°49' W 071°24'0 0.0
2017-Apr-26 02:57N 41°49' W 071°24'0 0.0
2017-Apr-26 02:26N 41°49' W 071°24'0 0.0
2017-Apr-26 01:55N 41°49' W 071°24'0 0.0
2017-Apr-26 00:29N 41°49' W 071°24'0 0.0
2017-Apr-25 23:55N 41°49' W 071°24'0 0.0
2017-Apr-25 21:09N 41°49' W 071°24'0 0.0
2017-Apr-25 21:00N 41°49' W 071°24'0 0.0
2017-Apr-25 20:30N 41°49' W 071°24'0 0.0
2017-Apr-25 16:11N 41°49' W 071°24'0 0.0
2017-Apr-25 16:00N 41°49' W 071°24'0 0.0
2017-Apr-25 15:30N 41°49' W 071°24'0 0.0
2017-Apr-25 15:00N 41°49' W 071°24'0 0.0
2017-Apr-25 14:00N 41°49' W 071°24'0 0.0
2017-Apr-25 13:11N 41°49' W 071°24'0 0.0
2017-Apr-25 11:24N 41°49' W 071°24'0 0.0
2017-Apr-25 10:55N 41°49' W 071°24'0 0.0
2017-Apr-25 10:30N 41°49' W 071°24'0 0.0
2017-Apr-25 08:46N 41°49' W 071°24'0 0.0
2017-Apr-25 08:29N 41°49' W 071°24'0 0.0
2017-Apr-25 07:40N 41°49' W 071°24'0 0.0
2017-Apr-25 07:29N 41°49' W 071°24'0 0.0
2017-Apr-25 06:56N 41°49' W 071°24'0 0.0
2017-Apr-25 06:30N 41°49' W 071°24'0 0.0
2017-Apr-25 05:58N 41°49' W 071°24'0 0.0
2017-Apr-25 03:19N 41°49' W 071°24'0 0.0
2017-Apr-25 03:00N 41°49' W 071°24'0 0.0
2017-Apr-25 02:29N 41°49' W 071°24'0 0.0
2017-Apr-25 01:56N 41°49' W 071°24'2 0.9
2017-Apr-25 00:04N 41°47' W 071°23'0 7.8
2017-Apr-25 00:00N 41°47' W 071°22'0 0.4
2017-Apr-24 23:29N 41°47' W 071°22'0 0.8
2017-Apr-24 23:00N 41°47' W 071°23'1 1.5
2017-Apr-24 22:26N 41°46' W 071°22'2 4.2
2017-Apr-24 22:00N 41°45' W 071°22'3 5.6
2017-Apr-24 21:30N 41°42' W 071°20'4 8.5
2017-Apr-24 21:00N 41°38' W 071°22'3 0.6
2017-Apr-24 14:49N 41°35' W 071°23'4 0.4
2017-Apr-24 04:12N 41°37' W 071°18'1 6.5
2017-Apr-24 04:00N 41°38' W 071°18'3 6.5
2017-Apr-24 03:30N 41°42' W 071°19'3 6.8
2017-Apr-24 03:00N 41°44' W 071°22'4 6.8
2017-Apr-24 02:22N 41°48' W 071°24'1 0.1
2017-Apr-23 12:40N 41°48' W 071°23'0 0.2
2017-Apr-23 11:03N 41°47' W 071°23'0 6.1
2017-Apr-23 11:00N 41°47' W 071°23'1 1.2
2017-Apr-23 10:30N 41°47' W 071°22'0 0.8
2017-Apr-23 10:00N 41°47' W 071°22'2 0.4
2017-Apr-23 06:06N 41°48' W 071°24'0 0.1
2017-Apr-23 05:58N 41°48' W 071°24'0 0.6
2017-Apr-23 05:25N 41°48' W 071°24'1 1.3
2017-Apr-23 04:58N 41°49' W 071°24'0 0.0
2017-Apr-23 04:24N 41°49' W 071°24'0 0.0
2017-Apr-23 03:57N 41°49' W 071°24'0 0.0
2017-Apr-23 03:28N 41°49' W 071°24'0 0.0
2017-Apr-23 03:00N 41°49' W 071°24'0 0.0
2017-Apr-23 02:30N 41°49' W 071°24'0 0.0
2017-Apr-23 02:00N 41°49' W 071°24'1 0.2
2017-Apr-22 21:37N 41°48' W 071°24'0 0.6
2017-Apr-22 21:28N 41°48' W 071°24'1 0.1
2017-Apr-22 14:01N 41°48' W 071°23'1 1.5
2017-Apr-22 13:30N 41°47' W 071°22'1 1.0
2017-Apr-22 12:59N 41°46' W 071°22'3 1.1
2017-Apr-22 10:28N 41°49' W 071°24'0 0.1
2017-Apr-22 09:33N 41°49' W 071°24'1 7.0
2017-Apr-22 09:27N 41°48' W 071°24'0 0.1
2017-Apr-22 08:18N 41°48' W 071°24'1 0.2
2017-Apr-22 04:21N 41°49' W 071°24'0 0.0
2017-Apr-22 03:33N 41°49' W 071°24'0 0.0
2017-Apr-22 03:12N 41°49' W 071°24'0 0.0
2017-Apr-22 02:48N 41°49' W 071°24'0 0.0
2017-Apr-22 02:22N 41°49' W 071°24'0 0.0
2017-Apr-22 01:53N 41°49' W 071°24'0 0.0
2017-Apr-21 22:20N 41°49' W 071°24'0 0.0
2017-Apr-21 21:52N 41°49' W 071°24'0 0.0
2017-Apr-21 21:30N 41°49' W 071°24'1 1.3
2017-Apr-21 20:57N 41°48' W 071°24'2 0.4
2017-Apr-21 16:37N 41°47' W 071°22'0 0.4
2017-Apr-21 16:30N 41°47' W 071°22'0 0.1
2017-Apr-21 16:00N 41°47' W 071°22'2 0.5
2017-Apr-21 12:37N 41°48' W 071°24'0 0.0
2017-Apr-21 12:21N 41°48' W 071°24'1 0.5
2017-Apr-21 10:35N 41°49' W 071°24'0 0.1
2017-Apr-21 10:29N 41°49' W 071°24'0 0.0
2017-Apr-21 08:34N 41°49' W 071°24'0 0.0
2017-Apr-21 08:21N 41°49' W 071°24'0 0.0
2017-Apr-21 07:46N 41°49' W 071°24'0 0.0
2017-Apr-21 07:29N 41°49' W 071°24'0 0.0
2017-Apr-21 06:56N 41°49' W 071°24'0 0.0
2017-Apr-21 06:28N 41°49' W 071°24'0 0.0
2017-Apr-21 06:00N 41°49' W 071°24'0 0.0
2017-Apr-21 05:29N 41°49' W 071°24'0 0.0
2017-Apr-21 05:00N 41°49' W 071°24'0 0.0
2017-Apr-21 04:30N 41°49' W 071°24'0 0.0
2017-Apr-21 03:50N 41°49' W 071°24'0 0.0
2017-Apr-21 03:08N 41°49' W 071°24'0 0.0
2017-Apr-21 02:52N 41°49' W 071°24'0 0.0
2017-Apr-21 02:30N 41°49' W 071°24'0 0.0
2017-Apr-21 00:42N 41°49' W 071°24'0 0.0
2017-Apr-20 23:02N 41°49' W 071°24'0 0.0
2017-Apr-20 22:43N 41°49' W 071°24'1 0.5
2017-Apr-20 21:13N 41°48' W 071°23'1 0.5
2017-Apr-20 18:32N 41°47' W 071°23'0 8.4
2017-Apr-20 18:30N 41°47' W 071°22'5 8.8
2017-Apr-20 17:58N 41°42' W 071°20'6 8.7
2017-Apr-20 17:15N 41°37' W 071°24'  
Track history (hours):
 
Tides and Currents Weather Stations Pressure Air Temp Water Temp Dewpoint Dewpoint Depression Visibility Wind Speed Wind Dir Waves Ship Positions

Iona Mcallister

Owner: McAllister Towing & Transportation Co. Inc., Staten Island, NY. More information available from US FCC via Universal Licensing System and Coast Guard Vessel Documentation Center.

Last reported at 2017-Apr-30 16:24 UTC. Time now 2017-Apr-30 16:55 UTC.
Position N 41°36' W 071°24'.

Length 36 m; draft 3 m.

Type: Towing. MMSI: 367149890.

Date/timePositionNaut miles runAvg speedWind from/ knotsBaromVisibWave heightAir tempDewpointWater temp
2017-Apr-30 16:24N 41°36' W 071°24'1 0.1
2017-Apr-30 10:01N 41°37' W 071°24'0 1.2
2017-Apr-30 10:00N 41°37' W 071°24'2 3.0
2017-Apr-30 09:29N 41°35' W 071°24'1 0.2
2017-Apr-30 02:44N 41°36' W 071°24'2 8.5
2017-Apr-30 02:30N 41°38' W 071°22'4 7.5
2017-Apr-30 01:58N 41°42' W 071°20'4 7.5
2017-Apr-30 01:30N 41°45' W 071°22'4 2.3
2017-Apr-29 23:40N 41°49' W 071°24'0 0.0
2017-Apr-29 23:17N 41°49' W 071°24'0 0.0
2017-Apr-29 21:57N 41°49' W 071°24'2 0.4
2017-Apr-29 17:28N 41°47' W 071°23'4 8.2
2017-Apr-29 16:59N 41°43' W 071°21'7 1.9
2017-Apr-29 13:21N 41°37' W 071°18'4 9.8
2017-Apr-29 12:55N 41°41' W 071°19'3 7.8
2017-Apr-29 12:30N 41°44' W 071°22'5 8.7
2017-Apr-29 11:56N 41°48' W 071°24'1 1.3
2017-Apr-29 11:29N 41°49' W 071°24'0 0.0
2017-Apr-29 10:42N 41°49' W 071°24'0 0.0
2017-Apr-29 04:52N 41°49' W 071°24'0 0.0
2017-Apr-29 03:35N 41°49' W 071°24'0 0.0
2017-Apr-29 03:01N 41°49' W 071°24'0 0.0
2017-Apr-29 02:47N 41°49' W 071°24'0 0.0
2017-Apr-29 02:28N 41°49' W 071°24'0 0.0
2017-Apr-28 19:54N 41°49' W 071°24'0 0.0
2017-Apr-28 19:13N 41°49' W 071°24'0 0.0
2017-Apr-28 16:48N 41°49' W 071°24'0 0.0
2017-Apr-28 16:13N 41°49' W 071°24'0 0.0
2017-Apr-28 15:53N 41°49' W 071°24'0 0.0
2017-Apr-28 15:30N 41°49' W 071°24'0 0.0
2017-Apr-28 13:46N 41°49' W 071°24'0 0.0
2017-Apr-28 13:30N 41°49' W 071°24'0 0.0
2017-Apr-28 10:48N 41°49' W 071°24'0 0.0
2017-Apr-28 10:30N 41°49' W 071°24'0 0.0
2017-Apr-28 09:58N 41°49' W 071°24'2 2.6
2017-Apr-28 09:17N 41°47' W 071°23'2 8.7
2017-Apr-28 09:00N 41°45' W 071°22'6 9.2
2017-Apr-28 08:23N 41°40' W 071°19'2 0.2
2017-Apr-27 17:39N 41°38' W 071°18'1 9.0
2017-Apr-27 17:30N 41°39' W 071°18'4 8.6
2017-Apr-27 17:00N 41°43' W 071°20'7 2.7
2017-Apr-27 14:31N 41°49' W 071°24'0 0.0
2017-Apr-27 13:57N 41°49' W 071°24'0 0.0
2017-Apr-27 13:28N 41°49' W 071°24'0 0.0
2017-Apr-27 13:00N 41°49' W 071°24'0 0.0
2017-Apr-27 12:23N 41°49' W 071°24'0 0.0
2017-Apr-27 11:46N 41°49' W 071°24'0 0.0
2017-Apr-27 02:35N 41°49' W 071°24'0 0.0
2017-Apr-27 02:29N 41°49' W 071°24'0 0.0
2017-Apr-27 01:57N 41°49' W 071°24'0 0.0
2017-Apr-27 00:47N 41°49' W 071°24'0 0.0
2017-Apr-27 00:25N 41°49' W 071°24'0 0.0
2017-Apr-26 23:14N 41°49' W 071°24'0 0.0
2017-Apr-26 14:57N 41°49' W 071°24'0 0.0
2017-Apr-26 14:24N 41°49' W 071°24'2 1.3
2017-Apr-26 13:13N 41°48' W 071°23'1 4.5
2017-Apr-26 13:00N 41°47' W 071°22'0 0.1
2017-Apr-26 11:56N 41°47' W 071°22'2 3.5
2017-Apr-26 11:16N 41°49' W 071°24'0 0.0
2017-Apr-26 11:00N 41°49' W 071°24'0 0.0
2017-Apr-26 10:30N 41°49' W 071°24'0 0.0
2017-Apr-26 10:00N 41°49' W 071°24'0 0.0
2017-Apr-26 08:54N 41°49' W 071°24'0 0.0
2017-Apr-26 06:05N 41°49' W 071°24'0 0.0
2017-Apr-26 05:56N 41°49' W 071°24'0 0.0
2017-Apr-26 04:55N 41°49' W 071°24'1 1.0
2017-Apr-26 03:38N 41°48' W 071°23'1 6.3
2017-Apr-26 03:26N 41°49' W 071°24'0 0.0
2017-Apr-26 02:57N 41°49' W 071°24'0 0.0
2017-Apr-26 02:26N 41°49' W 071°24'0 0.0
2017-Apr-26 01:55N 41°49' W 071°24'0 0.0
2017-Apr-26 00:29N 41°49' W 071°24'0 0.0
2017-Apr-25 23:55N 41°49' W 071°24'0 0.0
2017-Apr-25 21:09N 41°49' W 071°24'0 0.0
2017-Apr-25 21:00N 41°49' W 071°24'0 0.0
2017-Apr-25 20:30N 41°49' W 071°24'0 0.0
2017-Apr-25 16:11N 41°49' W 071°24'0 0.0
2017-Apr-25 16:00N 41°49' W 071°24'0 0.0
2017-Apr-25 15:30N 41°49' W 071°24'0 0.0
2017-Apr-25 15:00N 41°49' W 071°24'0 0.0
2017-Apr-25 14:00N 41°49' W 071°24'0 0.0
2017-Apr-25 13:11N 41°49' W 071°24'0 0.0
2017-Apr-25 11:24N 41°49' W 071°24'0 0.0
2017-Apr-25 10:55N 41°49' W 071°24'0 0.0
2017-Apr-25 10:30N 41°49' W 071°24'0 0.0
2017-Apr-25 08:46N 41°49' W 071°24'0 0.0
2017-Apr-25 08:29N 41°49' W 071°24'0 0.0
2017-Apr-25 07:40N 41°49' W 071°24'0 0.0
2017-Apr-25 07:29N 41°49' W 071°24'0 0.0
2017-Apr-25 06:56N 41°49' W 071°24'0 0.0
2017-Apr-25 06:30N 41°49' W 071°24'0 0.0
2017-Apr-25 05:58N 41°49' W 071°24'0 0.0
2017-Apr-25 03:19N 41°49' W 071°24'0 0.0
2017-Apr-25 03:00N 41°49' W 071°24'0 0.0
2017-Apr-25 02:29N 41°49' W 071°24'0 0.0
2017-Apr-25 01:56N 41°49' W 071°24'2 0.9
2017-Apr-25 00:04N 41°47' W 071°23'0 7.8
2017-Apr-25 00:00N 41°47' W 071°22'0 0.4
2017-Apr-24 23:29N 41°47' W 071°22'0 0.8
2017-Apr-24 23:00N 41°47' W 071°23'1 1.5
2017-Apr-24 22:26N 41°46' W 071°22'2 4.2
2017-Apr-24 22:00N 41°45' W 071°22'3 5.6
2017-Apr-24 21:30N 41°42' W 071°20'4 8.5
2017-Apr-24 21:00N 41°38' W 071°22'3 0.6
2017-Apr-24 14:49N 41°35' W 071°23'4 0.4
2017-Apr-24 04:12N 41°37' W 071°18'1 6.5
2017-Apr-24 04:00N 41°38' W 071°18'3 6.5
2017-Apr-24 03:30N 41°42' W 071°19'3 6.8
2017-Apr-24 03:00N 41°44' W 071°22'4 6.8
2017-Apr-24 02:22N 41°48' W 071°24'1 0.1
2017-Apr-23 12:40N 41°48' W 071°23'0 0.2
2017-Apr-23 11:03N 41°47' W 071°23'0 6.1
2017-Apr-23 11:00N 41°47' W 071°23'1 1.2
2017-Apr-23 10:30N 41°47' W 071°22'0 0.8
2017-Apr-23 10:00N 41°47' W 071°22'2 0.4
2017-Apr-23 06:06N 41°48' W 071°24'0 0.1
2017-Apr-23 05:58N 41°48' W 071°24'0 0.6
2017-Apr-23 05:25N 41°48' W 071°24'1 1.3
2017-Apr-23 04:58N 41°49' W 071°24'0 0.0
2017-Apr-23 04:24N 41°49' W 071°24'0 0.0
2017-Apr-23 03:57N 41°49' W 071°24'0 0.0
2017-Apr-23 03:28N 41°49' W 071°24'0 0.0
2017-Apr-23 03:00N 41°49' W 071°24'0 0.0
2017-Apr-23 02:30N 41°49' W 071°24'0 0.0
2017-Apr-23 02:00N 41°49' W 071°24'1 0.2
2017-Apr-22 21:37N 41°48' W 071°24'0 0.6
2017-Apr-22 21:28N 41°48' W 071°24'1 0.1
2017-Apr-22 14:01N 41°48' W 071°23'1 1.5
2017-Apr-22 13:30N 41°47' W 071°22'1 1.0
2017-Apr-22 12:59N 41°46' W 071°22'3 1.1
2017-Apr-22 10:28N 41°49' W 071°24'0 0.1
2017-Apr-22 09:33N 41°49' W 071°24'1 7.0
2017-Apr-22 09:27N 41°48' W 071°24'0 0.1
2017-Apr-22 08:18N 41°48' W 071°24'1 0.2
2017-Apr-22 04:21N 41°49' W 071°24'0 0.0
2017-Apr-22 03:33N 41°49' W 071°24'0 0.0
2017-Apr-22 03:12N 41°49' W 071°24'0 0.0
2017-Apr-22 02:48N 41°49' W 071°24'0 0.0
2017-Apr-22 02:22N 41°49' W 071°24'0 0.0
2017-Apr-22 01:53N 41°49' W 071°24'0 0.0
2017-Apr-21 22:20N 41°49' W 071°24'0 0.0
2017-Apr-21 21:52N 41°49' W 071°24'0 0.0
2017-Apr-21 21:30N 41°49' W 071°24'1 1.3
2017-Apr-21 20:57N 41°48' W 071°24'2 0.4
2017-Apr-21 16:37N 41°47' W 071°22'0 0.4
2017-Apr-21 16:30N 41°47' W 071°22'0 0.1
2017-Apr-21 16:00N 41°47' W 071°22'2 0.5
2017-Apr-21 12:37N 41°48' W 071°24'0 0.0
2017-Apr-21 12:21N 41°48' W 071°24'1 0.5
2017-Apr-21 10:35N 41°49' W 071°24'0 0.1
2017-Apr-21 10:29N 41°49' W 071°24'0 0.0
2017-Apr-21 08:34N 41°49' W 071°24'0 0.0
2017-Apr-21 08:21N 41°49' W 071°24'0 0.0
2017-Apr-21 07:46N 41°49' W 071°24'0 0.0
2017-Apr-21 07:29N 41°49' W 071°24'0 0.0
2017-Apr-21 06:56N 41°49' W 071°24'0 0.0
2017-Apr-21 06:28N 41°49' W 071°24'0 0.0
2017-Apr-21 06:00N 41°49' W 071°24'0 0.0
2017-Apr-21 05:29N 41°49' W 071°24'0 0.0
2017-Apr-21 05:00N 41°49' W 071°24'0 0.0
2017-Apr-21 04:30N 41°49' W 071°24'0 0.0
2017-Apr-21 03:50N 41°49' W 071°24'0 0.0
2017-Apr-21 03:08N 41°49' W 071°24'0 0.0
2017-Apr-21 02:52N 41°49' W 071°24'0 0.0
2017-Apr-21 02:30N 41°49' W 071°24'0 0.0
2017-Apr-21 00:42N 41°49' W 071°24'0 0.0
2017-Apr-20 23:02N 41°49' W 071°24'0 0.0
2017-Apr-20 22:43N 41°49' W 071°24'1 0.5
2017-Apr-20 21:13N 41°48' W 071°23'1 0.5
2017-Apr-20 18:32N 41°47' W 071°23'0 8.4
2017-Apr-20 18:30N 41°47' W 071°22'5 8.8
2017-Apr-20 17:58N 41°42' W 071°20'6 8.7
2017-Apr-20 17:15N 41°37' W 071°24'  

Dump ship's entire track history